»·PEaware :: UAL1040 KSBA-KSLC

UAL1040 :: KSBA-KSLC

FLIGHT INFORMATION

Flight Status: Arrived
Operator:
United Airlines
More flights by this operator :: More flights under this callsign
Pilot: Alex K. (14822)
Aircraft: BOEING 737-200
(B732)
More flights by this aircraft type
Origin: KSBA Santa Barbara Mun
United States
Destination: KSLC Salt Lake City Intl
United States
More flights between these airports :: More routes between these airports
Route: +PMD J6 HEC J107 MLF JAMMN5
File this flight plan on PilotEdge
Remarks: PBN / A1B2 NAV / RNVD1E2A1 DAT / V DOF / 180428 REG / N275SB EET / KZLC0051 RMK / NRP SIMBRIEF
Altitude:
(Current/Filed)
31,000ft
Speed:
(Current/Filed)
436kts
Departed: 28-Apr-18 11:01 AM
Arrived: 28-Apr-18 12:33 PM
Distance/Time
Traveled:
534nm/1:32
Distance/Time
To Go:
Arrived

Flight Plot

Page will automatically refresh every two minutes.

Flight plan parsing failed; only flown route is shown


Map Options




Map Legend


Flown Route
Filed Route
Departure Airport
Arrival Airport
Navaid (VOR, NDB)
Fix

Horizontal Profiles

Position Reports

Time Latitude Longitude Heading Altitude Ground
Speed
28-Apr-18 10:48 34.424579 -119.837090 124 22ft 0kts
28-Apr-18 10:49 34.424579 -119.837090 124 22ft 0kts
28-Apr-18 10:50 34.424579 -119.837090 124 22ft 0kts
28-Apr-18 10:51 34.424579 -119.837090 124 22ft 0kts
28-Apr-18 10:52 34.424579 -119.837090 124 22ft 0kts
28-Apr-18 10:53 34.424579 -119.837090 124 22ft 0kts
28-Apr-18 10:54 34.424735 -119.837360 111 22ft 1kts
28-Apr-18 10:55 34.424446 -119.837674 344 22ft 1kts
28-Apr-18 10:56 34.424434 -119.837670 344 22ft 0kts
28-Apr-18 10:57 34.424434 -119.837670 344 22ft 0kts
28-Apr-18 10:58 34.426605 -119.838124 43 22ft 15kts
28-Apr-18 10:59 34.426903 -119.834778 44 22ft 0kts
28-Apr-18 11:00 34.427834 -119.838591 268 22ft 77kts
28-Apr-18 11:01 34.424624 -119.892230 240 1404ft 214kts
28-Apr-18 11:02 34.368916 -119.893265 152 4734ft 252kts
28-Apr-18 11:03 34.304530 -119.852617 152 7977ft 275kts
28-Apr-18 11:04 34.239931 -119.805153 124 8523ft 281kts
28-Apr-18 11:05 34.251388 -119.709489 71 10399ft 323kts
28-Apr-18 11:06 34.280632 -119.600618 71 12047ft 356kts
28-Apr-18 11:07 34.308855 -119.484905 72 14008ft 369kts
28-Apr-18 11:08 34.337174 -119.364895 72 15762ft 381kts
28-Apr-18 11:09 34.362541 -119.253638 73 17109ft 389kts
28-Apr-18 11:10 34.391884 -119.126283 73 18512ft 401kts
28-Apr-18 11:11 34.421464 -118.997733 73 19864ft 408kts
28-Apr-18 11:12 34.451981 -118.864434 73 21113ft 415kts
28-Apr-18 11:13 34.480362 -118.740021 72 22188ft 422kts
28-Apr-18 11:14 34.509375 -118.612215 72 23182ft 428kts
28-Apr-18 11:15 34.540621 -118.473839 72 24137ft 434kts
28-Apr-18 11:16 34.569582 -118.344638 73 25006ft 436kts
28-Apr-18 11:17 34.597235 -118.217380 73 25446ft 446kts
28-Apr-18 11:18 34.627516 -118.080651 72 26116ft 448kts
28-Apr-18 11:19 34.657027 -117.934889 78 26688ft 454kts
28-Apr-18 11:20 34.675058 -117.783946 81 27251ft 459kts
28-Apr-18 11:21 34.690395 -117.630304 81 27760ft 462kts
28-Apr-18 11:22 34.705218 -117.476908 81 28214ft 465kts
28-Apr-18 11:23 34.719329 -117.327671 82 28615ft 468kts
28-Apr-18 11:24 34.733365 -117.171337 81 28968ft 471kts
28-Apr-18 11:25 34.748053 -117.011874 81 28996ft 481kts
28-Apr-18 11:26 34.762870 -116.848373 81 28915ft 491kts
28-Apr-18 11:27 34.777710 -116.682508 81 28917ft 497kts
28-Apr-18 11:28 34.792964 -116.515945 75 28908ft 501kts
28-Apr-18 11:29 34.863334 -116.380629 40 28949ft 485kts
28-Apr-18 11:30 34.954568 -116.261575 42 28937ft 490kts
28-Apr-18 11:31 35.046835 -116.140011 42 28938ft 492kts
28-Apr-18 11:32 35.137323 -116.021270 42 28941ft 493kts
28-Apr-18 11:33 35.230483 -115.898460 42 28942ft 495kts
28-Apr-18 11:34 35.323550 -115.774614 42 28921ft 498kts
28-Apr-18 11:35 35.416212 -115.650768 42 28891ft 500kts
28-Apr-18 11:36 35.508765 -115.526571 42 28890ft 493kts
28-Apr-18 11:37 35.596518 -115.408439 42 28891ft 489kts
28-Apr-18 11:38 35.679471 -115.295061 43 28882ft 487kts
28-Apr-18 11:39 35.769627 -115.171807 43 28854ft 485kts
28-Apr-18 11:40 35.859505 -115.049487 42 28882ft 482kts
28-Apr-18 11:41 35.946150 -114.931340 37 28821ft 478kts
28-Apr-18 11:42 36.055888 -114.848129 25 28805ft 467kts
28-Apr-18 11:43 36.164827 -114.766629 25 28833ft 467kts
28-Apr-18 11:44 36.275007 -114.682294 25 28809ft 467kts
28-Apr-18 11:45 36.385150 -114.597091 25 28810ft 468kts
28-Apr-18 11:46 36.493200 -114.513158 25 28810ft 468kts
28-Apr-18 11:47 36.602726 -114.427787 25 28810ft 468kts
28-Apr-18 11:48 36.711713 -114.342471 27 28832ft 468kts
28-Apr-18 11:49 36.820901 -114.255326 26 28828ft 466kts
28-Apr-18 11:50 36.928872 -114.170249 27 28823ft 466kts
28-Apr-18 11:51 37.039705 -114.082567 30 28831ft 481kts
28-Apr-18 11:52 37.153769 -113.992580 29 28833ft 494kts
28-Apr-18 11:53 37.270611 -113.899983 30 28834ft 503kts
28-Apr-18 11:54 37.389218 -113.805141 30 28834ft 511kts
28-Apr-18 11:55 37.508648 -113.709269 30 28943ft 514kts
28-Apr-18 11:56 37.628175 -113.612957 30 28945ft 519kts
28-Apr-18 11:57 37.743928 -113.519316 30 28946ft 523kts
28-Apr-18 11:58 37.862908 -113.422712 30 28947ft 526kts
28-Apr-18 11:59 37.982343 -113.324653 32 28934ft 525kts
28-Apr-18 12:00 38.102061 -113.225268 31 28857ft 508kts
28-Apr-18 12:01 38.218029 -113.130936 31 28852ft 494kts
28-Apr-18 12:02 38.330840 -113.037794 31 28853ft 485kts
28-Apr-18 12:03 38.448624 -112.960536 15 28866ft 478kts
28-Apr-18 12:04 38.569891 -112.901956 19 28859ft 479kts
28-Apr-18 12:05 38.689937 -112.838347 20 28860ft 478kts
28-Apr-18 12:06 38.809888 -112.773830 20 28862ft 477kts
28-Apr-18 12:07 38.929384 -112.709228 20 28863ft 476kts
28-Apr-18 12:08 39.050789 -112.643340 20 28861ft 476kts
28-Apr-18 12:09 39.165212 -112.581355 20 28860ft 476kts
28-Apr-18 12:10 39.279436 -112.519201 20 28861ft 481kts
28-Apr-18 12:11 39.408162 -112.473742 11 28680ft 487kts
28-Apr-18 12:12 39.542444 -112.429262 11 27397ft 501kts
28-Apr-18 12:13 39.675592 -112.386914 9 25724ft 491kts
28-Apr-18 12:14 39.805438 -112.346633 14 23839ft 492kts
28-Apr-18 12:15 39.930959 -112.302308 13 22681ft 471kts
28-Apr-18 12:16 40.055321 -112.259675 12 20938ft 461kts
28-Apr-18 12:17 40.174826 -112.218501 12 19332ft 450kts
28-Apr-18 12:18 40.294189 -112.177131 13 17752ft 441kts
28-Apr-18 12:19 40.410586 -112.136518 13 16349ft 430kts
28-Apr-18 12:20 40.524088 -112.096814 14 15031ft 420kts
28-Apr-18 12:21 40.635212 -112.064538 356 13818ft 408kts
28-Apr-18 12:22 40.745501 -112.074924 354 12969ft 385kts
28-Apr-18 12:23 40.841350 -112.084061 354 12356ft 323kts
28-Apr-18 12:24 40.929126 -112.093425 354 10529ft 315kts
28-Apr-18 12:25 41.015079 -112.099808 13 8909ft 313kts
28-Apr-18 12:26 41.051881 -112.012248 115 7215ft 295kts
28-Apr-18 12:27 40.990824 -111.985902 212 6010ft 256kts
28-Apr-18 12:28 40.935766 -112.016004 171 5973ft 203kts
28-Apr-18 12:29 40.887377 -112.008611 176 5838ft 148kts
28-Apr-18 12:30 40.849560 -112.004125 175 5075ft 138kts
28-Apr-18 12:31 40.811810 -111.999736 176 4346ft 134kts
28-Apr-18 12:32 40.788273 -111.996505 152 4236ft 27kts
28-Apr-18 12:33 40.790392 -111.995071 0 4236ft 15kts
28-Apr-18 12:34 40.791297 -111.989190 86 4236ft 22kts
28-Apr-18 12:35 40.790556 -111.981338 172 4236ft 20kts
28-Apr-18 12:36 40.789118 -111.980741 228 4236ft 4kts
28-Apr-18 12:37 40.789081 -111.980797 228 4236ft 0kts

Navigation Log

Ident Type
Flight plan parsing failed, navigation log unavailable